createdAt,value
2018-07-22T00:00:58.199Z,0.00
2018-07-22T00:01:58.229Z,0.00
2018-07-22T00:02:58.179Z,0.00
2018-07-22T00:03:58.164Z,0.00
2018-07-22T00:04:58.247Z,0.00
2018-07-22T00:05:58.247Z,0.00
2018-07-22T00:06:58.863Z,0.00
2018-07-22T00:07:58.237Z,0.00
2018-07-22T00:08:58.524Z,0.00
2018-07-22T00:09:58.893Z,0.00
2018-07-22T00:10:58.302Z,0.00
2018-07-22T00:11:58.223Z,0.00
2018-07-22T00:12:58.225Z,0.00
2018-07-22T00:13:58.244Z,0.00
2018-07-22T00:14:58.262Z,0.00
2018-07-22T00:15:58.235Z,0.00
2018-07-22T00:16:58.257Z,0.00
2018-07-22T00:17:58.307Z,0.00
2018-07-22T00:18:58.301Z,0.00
2018-07-22T00:19:58.237Z,0.00
2018-07-22T00:20:58.306Z,0.00
2018-07-22T00:21:58.289Z,0.00
2018-07-22T00:22:58.284Z,0.00
2018-07-22T00:23:58.292Z,0.00
2018-07-22T00:24:58.302Z,0.00
2018-07-22T00:25:58.290Z,0.00
2018-07-22T00:26:58.296Z,0.00
2018-07-22T00:27:58.257Z,0.00
2018-07-22T00:28:58.306Z,0.00
2018-07-22T00:29:58.255Z,0.00
2018-07-22T00:30:58.263Z,0.00
2018-07-22T00:31:58.660Z,0.00
2018-07-22T00:32:58.282Z,0.00
2018-07-22T00:33:58.265Z,0.00
2018-07-22T00:34:58.284Z,0.00
2018-07-22T00:35:58.327Z,0.00
2018-07-22T00:36:58.339Z,0.00
2018-07-22T00:37:58.402Z,0.00
2018-07-22T00:38:58.351Z,0.00
2018-07-22T00:39:58.293Z,0.00
2018-07-22T00:40:58.332Z,0.00
2018-07-22T00:41:58.297Z,0.00
2018-07-22T00:42:58.379Z,0.00
2018-07-22T00:43:58.327Z,0.00
2018-07-22T00:44:58.347Z,0.00
2018-07-22T00:45:58.349Z,0.00
2018-07-22T00:46:58.341Z,0.00
2018-07-22T00:47:58.404Z,0.00
2018-07-22T00:48:58.364Z,0.00
2018-07-22T00:49:58.410Z,0.00
2018-07-22T00:50:58.899Z,0.00
2018-07-22T00:51:58.351Z,0.00
2018-07-22T00:52:58.374Z,0.00
2018-07-22T00:53:58.388Z,0.00
2018-07-22T00:54:58.359Z,0.00
2018-07-22T00:55:58.404Z,0.00
2018-07-22T00:56:58.405Z,0.00
2018-07-22T00:57:58.441Z,0.00
2018-07-22T00:58:58.882Z,0.00
2018-07-22T00:59:58.422Z,0.00
2018-07-22T01:00:58.402Z,0.00
2018-07-22T01:01:58.440Z,0.00
2018-07-22T01:02:58.400Z,0.00
2018-07-22T01:03:58.398Z,0.00
2018-07-22T01:04:58.379Z,0.00
2018-07-22T01:05:58.903Z,0.00
2018-07-22T01:06:58.409Z,0.00
2018-07-22T01:07:58.347Z,0.00
2018-07-22T01:08:58.400Z,0.00
2018-07-22T01:09:58.431Z,0.00
2018-07-22T01:10:58.399Z,0.00
2018-07-22T01:11:58.428Z,0.00
2018-07-22T01:12:58.437Z,0.00
2018-07-22T01:13:58.400Z,0.00
2018-07-22T01:14:58.392Z,0.00
2018-07-22T01:15:58.482Z,0.00
2018-07-22T01:16:58.463Z,0.00
2018-07-22T01:17:58.504Z,0.00
2018-07-22T01:18:58.413Z,0.00
2018-07-22T01:19:58.408Z,0.00
2018-07-22T01:20:58.411Z,0.00
2018-07-22T01:21:58.477Z,0.00
2018-07-22T01:22:58.430Z,0.00
2018-07-22T01:23:58.475Z,0.00
2018-07-22T01:24:58.452Z,0.00
2018-07-22T01:25:58.413Z,0.00
2018-07-22T01:26:58.425Z,0.00
2018-07-22T01:27:58.472Z,0.00
2018-07-22T01:28:58.455Z,0.00
2018-07-22T01:29:58.478Z,0.00
2018-07-22T01:30:58.417Z,0.00
2018-07-22T01:31:58.407Z,0.00
2018-07-22T01:32:58.479Z,0.00
2018-07-22T01:33:58.516Z,0.00
2018-07-22T01:34:58.478Z,0.00
2018-07-22T01:35:58.465Z,0.00
2018-07-22T01:36:58.522Z,0.00
2018-07-22T01:37:58.442Z,0.00
2018-07-22T01:38:58.556Z,0.00
2018-07-22T01:39:58.556Z,0.00
2018-07-22T01:40:58.517Z,0.00
2018-07-22T01:41:58.446Z,0.00
2018-07-22T01:42:58.423Z,0.00
2018-07-22T01:43:58.492Z,0.00
2018-07-22T01:44:58.435Z,0.00
2018-07-22T01:45:58.458Z,0.00
2018-07-22T01:46:58.444Z,0.00
2018-07-22T01:47:58.451Z,0.00
2018-07-22T01:48:58.452Z,0.00
2018-07-22T01:49:58.463Z,0.00
2018-07-22T01:50:58.467Z,0.00
2018-07-22T01:51:58.451Z,0.00
2018-07-22T01:52:58.490Z,0.00
2018-07-22T01:53:58.499Z,0.00
2018-07-22T01:54:58.522Z,0.00
2018-07-22T01:55:58.479Z,0.00
2018-07-22T01:56:58.465Z,0.00
2018-07-22T01:57:58.494Z,0.00
2018-07-22T01:58:58.524Z,0.00
2018-07-22T01:59:58.535Z,0.00
2018-07-22T02:00:58.519Z,0.00
2018-07-22T02:01:58.562Z,0.00
2018-07-22T02:02:58.532Z,0.00
2018-07-22T02:03:58.604Z,0.00
2018-07-22T02:04:58.581Z,0.00
2018-07-22T02:05:58.576Z,0.00
2018-07-22T02:06:58.530Z,0.00
2018-07-22T02:07:58.610Z,0.00
2018-07-22T02:08:58.741Z,0.00
2018-07-22T02:09:58.618Z,0.00
2018-07-22T02:10:58.593Z,0.00
2018-07-22T02:11:58.560Z,0.00
2018-07-22T02:12:59.206Z,0.00
2018-07-22T02:13:58.559Z,0.00
2018-07-22T02:14:58.576Z,0.00
2018-07-22T02:15:58.628Z,0.00
2018-07-22T02:16:58.571Z,0.00
2018-07-22T02:17:58.555Z,0.00
2018-07-22T02:18:58.590Z,0.00
2018-07-22T02:19:58.632Z,0.00
2018-07-22T02:20:58.569Z,0.00
2018-07-22T02:21:58.652Z,0.00
2018-07-22T02:22:58.610Z,0.00
2018-07-22T02:23:58.636Z,0.00
2018-07-22T02:24:58.622Z,0.00
2018-07-22T02:25:58.635Z,0.00
2018-07-22T02:26:58.732Z,0.00
2018-07-22T02:27:58.698Z,0.00
2018-07-22T02:28:58.626Z,0.00
2018-07-22T02:29:58.768Z,0.00
2018-07-22T02:30:58.572Z,0.00
2018-07-22T02:31:58.605Z,0.00
2018-07-22T02:32:59.417Z,0.00
2018-07-22T02:33:58.647Z,0.00
2018-07-22T02:34:58.598Z,0.00
2018-07-22T02:35:58.604Z,0.00
2018-07-22T02:36:58.652Z,0.00
2018-07-22T02:37:58.675Z,0.00
2018-07-22T02:38:58.665Z,0.00
2018-07-22T02:39:58.682Z,0.00
2018-07-22T02:40:58.689Z,0.00
2018-07-22T02:41:58.626Z,0.00
2018-07-22T02:42:58.635Z,0.00
2018-07-22T02:43:58.605Z,0.00
2018-07-22T02:44:58.726Z,0.00
2018-07-22T02:45:58.668Z,0.00
2018-07-22T02:46:58.736Z,0.00
2018-07-22T02:47:58.706Z,0.00
2018-07-22T02:48:58.896Z,0.00
2018-07-22T02:49:58.876Z,0.00
2018-07-22T02:50:58.651Z,0.00
2018-07-22T02:51:58.722Z,0.00
2018-07-22T02:52:58.717Z,0.00
2018-07-22T02:54:01.998Z,0.00
2018-07-22T02:54:58.712Z,0.00
2018-07-22T02:55:59.692Z,0.00
2018-07-22T02:56:58.699Z,0.00
2018-07-22T02:57:58.809Z,0.00
2018-07-22T02:58:58.702Z,0.00
2018-07-22T02:59:58.747Z,0.00
2018-07-22T03:00:58.728Z,0.00
2018-07-22T03:01:58.714Z,0.00
2018-07-22T03:02:58.736Z,0.00
2018-07-22T03:03:58.790Z,0.00
2018-07-22T03:04:58.665Z,0.00
2018-07-22T03:05:59.469Z,0.00
2018-07-22T03:06:58.682Z,0.00
2018-07-22T03:07:58.763Z,0.00
2018-07-22T03:08:58.730Z,0.00
2018-07-22T03:09:58.789Z,0.00
2018-07-22T03:10:58.778Z,0.00
2018-07-22T03:11:58.991Z,0.00
2018-07-22T03:12:58.847Z,0.00
2018-07-22T03:13:58.879Z,0.00
2018-07-22T03:14:58.839Z,0.00
2018-07-22T03:15:58.850Z,0.00
2018-07-22T03:16:58.850Z,0.00
2018-07-22T03:17:58.695Z,0.00
2018-07-22T03:18:58.772Z,0.00
2018-07-22T03:19:58.733Z,0.00
2018-07-22T03:20:59.004Z,0.00
2018-07-22T03:21:58.774Z,0.00
2018-07-22T03:22:58.886Z,0.00
2018-07-22T03:23:58.836Z,0.00
2018-07-22T03:24:58.750Z,0.00
2018-07-22T03:25:58.789Z,0.00
2018-07-22T03:26:58.814Z,0.00
2018-07-22T03:27:58.754Z,0.00
2018-07-22T03:28:59.057Z,0.00
2018-07-22T03:29:58.744Z,0.00
2018-07-22T03:30:58.828Z,0.00
2018-07-22T03:31:58.739Z,0.00
2018-07-22T03:32:58.827Z,0.00
2018-07-22T03:33:58.813Z,0.00
2018-07-22T03:34:58.819Z,0.00
2018-07-22T03:35:58.859Z,0.00
2018-07-22T03:36:58.805Z,0.00
2018-07-22T03:37:58.806Z,5.63
2018-07-22T03:38:58.826Z,5.63
2018-07-22T03:39:58.842Z,5.63
2018-07-22T03:40:58.827Z,5.63
2018-07-22T03:41:58.828Z,5.63
2018-07-22T03:42:58.817Z,5.63
2018-07-22T03:43:58.839Z,5.63
2018-07-22T03:44:58.839Z,5.63
2018-07-22T03:45:58.843Z,5.63
2018-07-22T03:46:58.885Z,5.63
2018-07-22T03:47:58.881Z,5.63
2018-07-22T03:48:58.822Z,5.63
2018-07-22T03:49:58.858Z,11.25
2018-07-22T03:50:58.838Z,11.25
2018-07-22T03:51:58.837Z,11.25
2018-07-22T03:52:58.918Z,11.25
2018-07-22T03:53:58.834Z,11.25
2018-07-22T03:54:59.452Z,11.25
2018-07-22T03:55:58.887Z,11.25
2018-07-22T03:56:58.845Z,11.25
2018-07-22T03:57:58.878Z,16.88
2018-07-22T03:58:58.850Z,16.88
2018-07-22T03:59:58.874Z,16.88
2018-07-22T04:00:58.842Z,16.88
2018-07-22T04:01:58.896Z,16.88
2018-07-22T04:02:58.927Z,16.88
2018-07-22T04:03:58.856Z,16.88
2018-07-22T04:04:58.875Z,22.50
2018-07-22T04:05:58.854Z,22.50
2018-07-22T04:06:58.898Z,22.50
2018-07-22T04:07:59.008Z,22.50
2018-07-22T04:08:58.909Z,22.50
2018-07-22T04:09:58.852Z,22.50
2018-07-22T04:10:58.923Z,28.13
2018-07-22T04:11:58.853Z,28.13
2018-07-22T04:12:58.891Z,28.13
2018-07-22T04:13:58.920Z,28.13
2018-07-22T04:14:58.880Z,28.13
2018-07-22T04:15:58.952Z,33.75
2018-07-22T04:16:58.915Z,33.75
2018-07-22T04:17:58.941Z,33.75
2018-07-22T04:18:59.005Z,33.75
2018-07-22T04:19:58.999Z,39.38
2018-07-22T04:20:58.943Z,39.38
2018-07-22T04:21:58.924Z,39.38
2018-07-22T04:22:58.926Z,39.38
2018-07-22T04:23:58.926Z,45.00
2018-07-22T04:24:58.952Z,45.00
2018-07-22T04:25:58.940Z,45.00
2018-07-22T04:26:58.942Z,45.00
2018-07-22T04:27:58.882Z,50.63
2018-07-22T04:28:59.214Z,50.63
2018-07-22T04:29:58.937Z,50.63
2018-07-22T04:30:58.957Z,50.63
2018-07-22T04:31:59.027Z,56.25
2018-07-22T04:32:58.894Z,56.25
2018-07-22T04:33:58.996Z,56.25
2018-07-22T04:34:58.983Z,61.88
2018-07-22T04:35:58.992Z,61.88
2018-07-22T04:36:58.977Z,61.88
2018-07-22T04:37:58.993Z,61.88
2018-07-22T04:38:59.005Z,61.88
2018-07-22T04:39:58.973Z,61.88
2018-07-22T04:40:58.973Z,61.88
2018-07-22T04:41:59.060Z,61.88
2018-07-22T04:42:59.030Z,67.50
2018-07-22T04:43:58.968Z,67.50
2018-07-22T04:44:58.991Z,67.50
2018-07-22T04:45:58.991Z,67.50
2018-07-22T04:46:58.993Z,67.50
2018-07-22T04:47:59.053Z,73.13
2018-07-22T04:48:58.945Z,73.13
2018-07-22T04:49:59.000Z,73.13
2018-07-22T04:50:59.001Z,78.75
2018-07-22T04:51:59.025Z,84.38
2018-07-22T04:52:58.975Z,84.38
2018-07-22T04:53:59.043Z,90.00
2018-07-22T04:54:59.039Z,90.00
2018-07-22T04:55:59.064Z,95.63
2018-07-22T04:56:59.076Z,95.63
2018-07-22T04:57:59.060Z,95.63
2018-07-22T04:58:59.014Z,101.25
2018-07-22T04:59:59.089Z,101.25
2018-07-22T05:00:59.104Z,101.25
2018-07-22T05:01:59.076Z,101.25
2018-07-22T05:02:59.194Z,106.88
2018-07-22T05:03:59.016Z,106.88
2018-07-22T05:04:59.054Z,106.88
2018-07-22T05:05:59.024Z,112.50
2018-07-22T05:06:59.061Z,112.50
2018-07-22T05:07:59.037Z,112.50
2018-07-22T05:08:59.048Z,118.13
2018-07-22T05:09:59.063Z,118.13
2018-07-22T05:10:59.108Z,123.75
2018-07-22T05:11:59.063Z,123.75
2018-07-22T05:12:59.060Z,129.38
2018-07-22T05:13:59.085Z,129.38
2018-07-22T05:14:59.264Z,135.00
2018-07-22T05:15:59.083Z,135.00
2018-07-22T05:16:59.109Z,140.63
2018-07-22T05:17:59.099Z,146.25
2018-07-22T05:18:59.045Z,146.25
2018-07-22T05:19:59.041Z,146.25
2018-07-22T05:20:59.109Z,151.88
2018-07-22T05:21:59.040Z,151.88
2018-07-22T05:22:59.056Z,157.50
2018-07-22T05:24:01.637Z,157.50
2018-07-22T05:24:59.137Z,163.13
2018-07-22T05:25:59.164Z,163.13
2018-07-22T05:26:59.131Z,168.75
2018-07-22T05:27:59.272Z,180.00
2018-07-22T05:28:59.224Z,202.50
2018-07-22T05:29:59.083Z,230.63
2018-07-22T05:30:59.102Z,247.50
2018-07-22T05:31:59.107Z,253.13
2018-07-22T05:32:59.052Z,258.75
2018-07-22T05:33:59.088Z,258.75
2018-07-22T05:34:59.116Z,264.38
2018-07-22T05:35:59.201Z,264.38
2018-07-22T05:36:59.147Z,275.63
2018-07-22T05:37:59.160Z,275.63
2018-07-22T05:38:59.136Z,281.25
2018-07-22T05:39:59.134Z,281.25
2018-07-22T05:40:59.101Z,286.88
2018-07-22T05:41:59.239Z,292.50
2018-07-22T05:42:59.115Z,298.13
2018-07-22T05:43:59.191Z,303.75
2018-07-22T05:44:59.217Z,298.13
2018-07-22T05:45:59.220Z,298.13
2018-07-22T05:46:59.238Z,309.38
2018-07-22T05:47:59.252Z,320.63
2018-07-22T05:48:59.213Z,326.25
2018-07-22T05:49:59.191Z,326.25
2018-07-22T05:50:59.239Z,331.88
2018-07-22T05:51:59.165Z,343.13
2018-07-22T05:52:59.996Z,348.75
2018-07-22T05:53:59.242Z,348.75
2018-07-22T05:54:59.197Z,343.13
2018-07-22T05:55:59.192Z,354.38
2018-07-22T05:56:59.217Z,360.00
2018-07-22T05:57:59.289Z,360.00
2018-07-22T05:58:59.276Z,371.25
2018-07-22T05:59:59.207Z,371.25
2018-07-22T06:00:59.269Z,371.25
2018-07-22T06:01:59.246Z,371.25
2018-07-22T06:02:59.226Z,365.63
2018-07-22T06:03:59.217Z,388.13
2018-07-22T06:04:59.262Z,388.13
2018-07-22T06:05:59.425Z,393.75
2018-07-22T06:06:59.295Z,399.38
2018-07-22T06:07:59.400Z,399.38
2018-07-22T06:08:59.338Z,388.13
2018-07-22T06:09:59.347Z,343.13
2018-07-22T06:10:59.393Z,331.88
2018-07-22T06:11:59.381Z,360.00
2018-07-22T06:12:59.903Z,393.75
2018-07-22T06:13:59.385Z,416.25
2018-07-22T06:15:00.010Z,427.50
2018-07-22T06:16:03.020Z,438.75
2018-07-22T06:16:59.430Z,450.00
2018-07-22T06:17:59.388Z,461.25
2018-07-22T06:18:59.395Z,478.13
2018-07-22T06:20:02.408Z,466.88
2018-07-22T06:21:00.483Z,461.25
2018-07-22T06:22:01.353Z,483.75
2018-07-22T06:23:01.877Z,489.38
2018-07-22T06:24:00.557Z,472.50
2018-07-22T06:24:59.422Z,495.00
2018-07-22T06:25:59.574Z,500.63
2018-07-22T06:26:59.609Z,500.63
2018-07-22T06:28:00.018Z,506.25
2018-07-22T06:28:59.503Z,511.88
2018-07-22T06:29:59.474Z,517.50
2018-07-22T06:30:59.485Z,517.50
2018-07-22T06:31:59.453Z,517.50
2018-07-22T06:32:59.466Z,523.13
2018-07-22T06:33:59.614Z,523.13
2018-07-22T06:34:59.511Z,528.75
2018-07-22T06:35:59.469Z,534.38
2018-07-22T06:36:59.664Z,528.75
2018-07-22T06:37:59.608Z,545.63
2018-07-22T06:38:59.613Z,545.63
2018-07-22T06:39:59.572Z,551.25
2018-07-22T06:41:04.308Z,540.00
2018-07-22T06:41:59.614Z,556.88
2018-07-22T06:42:59.596Z,545.63
2018-07-22T06:43:59.743Z,511.88
2018-07-22T06:44:59.602Z,523.13
2018-07-22T06:45:59.781Z,568.13
2018-07-22T06:46:59.784Z,585.00
2018-07-22T06:47:59.912Z,585.00
2018-07-22T06:48:59.766Z,590.63
2018-07-22T06:49:59.886Z,601.88
2018-07-22T06:50:59.784Z,607.50
2018-07-22T06:51:59.716Z,607.50
2018-07-22T06:52:59.681Z,607.50
2018-07-22T06:53:59.653Z,613.13
2018-07-22T06:54:59.724Z,618.75
2018-07-22T06:55:59.779Z,624.38
2018-07-22T06:56:59.876Z,624.38
2018-07-22T06:57:59.919Z,635.63
2018-07-22T06:59:00.534Z,641.25
2018-07-22T06:59:59.806Z,635.63
2018-07-22T07:01:00.003Z,641.25
2018-07-22T07:02:00.019Z,641.25
2018-07-22T07:02:59.923Z,641.25
2018-07-22T07:03:59.886Z,646.88
2018-07-22T07:04:59.836Z,652.50
2018-07-22T07:06:00.539Z,652.50
2018-07-22T07:06:59.961Z,658.13
2018-07-22T07:08:00.184Z,669.38
2018-07-22T07:08:59.895Z,663.75
2018-07-22T07:10:00.038Z,675.00
2018-07-22T07:11:00.085Z,675.00
2018-07-22T07:12:00.177Z,680.63
2018-07-22T07:13:00.034Z,686.25
2018-07-22T07:14:00.569Z,697.50
2018-07-22T07:15:00.042Z,697.50
2018-07-22T07:17:00.203Z,703.13
2018-07-22T07:18:00.110Z,714.38
2018-07-22T07:19:00.030Z,720.00
2018-07-22T07:20:00.405Z,720.00
2018-07-22T07:21:00.234Z,725.63
2018-07-22T07:22:00.324Z,725.63
2018-07-22T07:23:00.193Z,731.25
2018-07-22T07:24:00.157Z,742.50
2018-07-22T07:25:00.389Z,742.50
2018-07-22T07:26:00.380Z,742.50
2018-07-22T07:26:59.974Z,748.13
2018-07-22T07:28:00.382Z,753.75
2018-07-22T07:29:01.055Z,748.13
2018-07-22T07:30:00.353Z,748.13
2018-07-22T07:31:00.220Z,770.63
2018-07-22T07:32:00.590Z,781.88
2018-07-22T07:33:00.851Z,787.50
2018-07-22T07:34:00.693Z,787.50
2018-07-22T07:35:00.408Z,798.75
2018-07-22T07:36:00.957Z,810.00
2018-07-22T07:37:01.307Z,810.00
2018-07-22T07:38:00.930Z,815.63
2018-07-22T07:39:01.264Z,826.88
2018-07-22T07:40:00.920Z,832.50
2018-07-22T07:41:00.837Z,826.88
2018-07-22T07:42:01.067Z,832.50
2018-07-22T07:43:00.914Z,849.38
2018-07-22T07:44:01.092Z,855.00
2018-07-22T07:45:00.665Z,866.25
2018-07-22T07:46:01.109Z,860.63
2018-07-22T07:47:01.428Z,866.25
2018-07-22T07:48:01.441Z,866.25
2018-07-22T07:49:00.745Z,877.50
2018-07-22T07:50:01.075Z,888.75
2018-07-22T07:51:01.590Z,888.75
2018-07-22T07:52:08.071Z,894.38
2018-07-22T07:53:07.971Z,905.63
2018-07-22T07:54:01.073Z,911.25
2018-07-22T07:55:02.132Z,916.88
2018-07-22T07:56:01.023Z,916.88
2018-07-22T07:57:00.893Z,900.00
2018-07-22T07:58:01.818Z,933.75
2018-07-22T07:59:02.165Z,939.38
2018-07-22T08:00:01.088Z,945.00
2018-07-22T08:01:01.545Z,950.63
2018-07-22T08:02:01.303Z,961.88
2018-07-22T08:03:02.317Z,973.13
2018-07-22T08:04:01.116Z,990.00
2018-07-22T08:05:01.538Z,1001.25
2018-07-22T08:06:02.097Z,1006.88
2018-07-22T08:07:01.635Z,1023.75
2018-07-22T08:08:02.559Z,1023.75
2018-07-22T08:09:02.384Z,1035.00
2018-07-22T08:10:01.666Z,1051.88
2018-07-22T08:11:02.219Z,1074.38
2018-07-22T08:12:02.381Z,1096.88
2018-07-22T08:13:02.188Z,1119.38
2018-07-22T08:14:01.428Z,1102.50
2018-07-22T08:15:00.663Z,1063.13
2018-07-22T08:16:01.762Z,1051.88
2018-07-22T08:17:00.825Z,1035.00
2018-07-22T08:18:01.613Z,978.75
2018-07-22T08:19:02.225Z,1102.50
2018-07-22T08:20:01.810Z,1170.00
2018-07-22T08:21:02.980Z,1158.75
2018-07-22T08:22:02.385Z,1108.13
2018-07-22T08:23:02.178Z,1271.25
2018-07-22T08:24:02.088Z,1299.38
2018-07-22T08:25:01.641Z,1338.75
2018-07-22T08:26:01.048Z,1372.50
2018-07-22T08:27:03.694Z,1423.13
2018-07-22T08:28:00.832Z,1490.63
2018-07-22T08:29:01.991Z,1597.50
2018-07-22T08:30:01.892Z,1676.25
2018-07-22T08:31:02.035Z,1777.50
2018-07-22T08:32:02.270Z,1895.63
2018-07-22T08:33:02.364Z,2008.13
2018-07-22T08:34:02.873Z,2002.50
2018-07-22T08:35:01.643Z,2165.63
2018-07-22T08:36:02.543Z,2379.38
2018-07-22T08:37:03.448Z,2576.25
2018-07-22T08:38:01.131Z,2947.50
2018-07-22T08:39:02.481Z,3481.88
2018-07-22T08:40:03.060Z,3903.75
2018-07-22T08:41:03.457Z,4207.50
2018-07-22T08:42:02.230Z,4668.75
2018-07-22T08:44:03.378Z,4736.25
2018-07-22T08:45:03.458Z,4708.13
2018-07-22T08:46:03.972Z,4421.25
2018-07-22T08:47:03.174Z,3780.00
2018-07-22T08:48:04.611Z,4111.88
2018-07-22T08:49:03.412Z,4156.88
2018-07-22T08:50:06.434Z,4140.00
2018-07-22T08:51:03.485Z,4078.13
2018-07-22T08:52:03.623Z,4078.13
2018-07-22T08:53:23.369Z,3808.13
2018-07-22T08:54:03.823Z,3375.00
2018-07-22T08:56:04.429Z,3105.00
2018-07-22T08:57:04.266Z,2761.88
2018-07-22T08:58:02.796Z,2930.63
2018-07-22T09:00:06.305Z,2925.00
2018-07-22T09:01:04.355Z,2970.00
2018-07-22T09:02:03.824Z,2970.00
2018-07-22T09:03:08.512Z,2919.38
2018-07-22T09:04:05.844Z,2823.75
2018-07-22T09:05:08.118Z,2745.00
2018-07-22T09:06:07.181Z,2705.63
2018-07-22T09:07:05.984Z,2750.63
2018-07-22T09:08:07.612Z,2880.00
2018-07-22T09:09:04.867Z,2908.13
2018-07-22T09:10:12.687Z,2885.63
2018-07-22T09:11:03.725Z,2812.50
2018-07-22T09:12:03.790Z,2694.38
2018-07-22T09:13:06.788Z,2666.25
2018-07-22T09:14:02.898Z,2745.00
2018-07-22T09:15:04.531Z,2795.63
2018-07-22T09:16:06.520Z,2728.13
2018-07-22T09:17:05.510Z,2643.75
2018-07-22T09:18:05.405Z,2626.88
2018-07-22T09:19:04.476Z,2638.13
2018-07-22T09:20:06.444Z,2610.00
2018-07-22T09:21:08.306Z,2593.13
2018-07-22T09:22:05.536Z,2615.63
2018-07-22T09:23:09.615Z,2570.63
2018-07-22T09:24:04.777Z,2503.13
2018-07-22T09:25:04.044Z,2576.25
2018-07-22T09:26:01.874Z,2660.63
2018-07-22T09:27:08.097Z,2610.00
2018-07-22T09:28:06.209Z,2610.00
2018-07-22T09:29:05.231Z,2581.88
2018-07-22T09:30:06.477Z,2604.38
2018-07-22T09:31:06.410Z,2638.13
2018-07-22T09:32:05.913Z,2688.75
2018-07-22T09:33:03.971Z,2795.63
2018-07-22T09:34:07.471Z,2857.50
2018-07-22T09:35:07.274Z,2823.75
2018-07-22T09:36:06.227Z,2806.88
2018-07-22T09:37:06.029Z,2868.75
2018-07-22T09:38:05.909Z,2936.25
2018-07-22T09:39:06.702Z,3026.25
2018-07-22T09:40:07.008Z,3105.00
2018-07-22T09:41:06.408Z,3121.88
2018-07-22T09:42:04.815Z,3099.38
2018-07-22T09:43:04.987Z,3155.63
2018-07-22T09:44:06.266Z,3127.50
2018-07-22T09:45:06.144Z,3234.38
2018-07-22T09:46:07.920Z,3307.50
2018-07-22T09:47:07.608Z,3386.25
2018-07-22T09:48:06.683Z,3487.50
2018-07-22T09:49:02.540Z,3555.00
2018-07-22T09:50:06.046Z,3476.25
2018-07-22T09:51:07.978Z,3425.63
2018-07-22T09:52:07.494Z,3515.63
2018-07-22T09:53:05.559Z,3498.75
2018-07-22T09:54:05.374Z,3346.88
2018-07-22T09:55:04.866Z,3420.00
2018-07-22T09:56:05.100Z,3397.50
2018-07-22T10:01:03.575Z,3588.75
2018-07-22T10:03:05.027Z,3481.88
2018-07-22T10:04:08.109Z,3431.25
2018-07-22T10:05:08.428Z,3397.50
2018-07-22T10:06:08.509Z,3380.63
2018-07-22T10:07:06.099Z,3256.88
2018-07-22T10:08:09.474Z,3121.88
2018-07-22T10:09:05.476Z,3240.00
2018-07-22T10:10:06.829Z,3628.13
2018-07-22T10:11:05.803Z,3695.63
2018-07-22T10:12:05.433Z,3825.00
2018-07-22T10:13:09.013Z,3915.00
2018-07-22T10:14:08.341Z,3920.63
2018-07-22T10:15:10.011Z,3836.25
2018-07-22T10:16:07.153Z,3723.75
2018-07-22T10:17:06.168Z,3543.75
2018-07-22T10:18:03.831Z,3465.00
2018-07-22T10:19:10.367Z,3335.63
2018-07-22T10:20:06.027Z,3150.00
2018-07-22T10:21:06.946Z,2998.13
2018-07-22T10:22:05.594Z,2745.00
2018-07-22T10:23:08.550Z,2475.00
2018-07-22T10:24:04.253Z,2430.00
2018-07-22T10:25:06.858Z,2396.25
2018-07-22T10:26:08.017Z,2334.38
2018-07-22T10:27:10.920Z,2261.25
2018-07-22T10:28:07.588Z,2233.13
2018-07-22T10:29:08.652Z,2188.13
2018-07-22T10:30:10.765Z,2131.88
2018-07-22T10:31:07.914Z,2086.88
2018-07-22T10:32:07.360Z,2058.75
2018-07-22T10:33:07.378Z,2041.88
2018-07-22T10:34:07.022Z,1985.63
2018-07-22T10:35:08.896Z,1918.13
2018-07-22T10:36:06.866Z,1890.00
2018-07-22T10:37:05.058Z,1861.88
2018-07-22T10:38:07.666Z,1665.00
2018-07-22T10:39:07.485Z,1873.13
2018-07-22T10:40:06.470Z,1906.88
2018-07-22T10:41:08.261Z,2351.25
2018-07-22T10:42:06.971Z,2767.50
2018-07-22T10:43:09.003Z,2795.63
2018-07-22T10:44:06.824Z,2880.00
2018-07-22T10:45:06.911Z,2829.38
2018-07-22T10:46:06.304Z,2632.50
2018-07-22T10:47:08.819Z,2373.75
2018-07-22T10:48:11.501Z,2216.25
2018-07-22T10:49:03.723Z,2199.38
2018-07-22T10:50:09.458Z,2064.38
2018-07-22T10:51:07.166Z,1597.50
2018-07-22T10:52:06.097Z,888.75
2018-07-22T10:53:06.534Z,500.63
2018-07-22T10:54:06.386Z,466.88
2018-07-22T10:55:05.016Z,461.25
2018-07-22T10:56:06.493Z,455.63
2018-07-22T10:57:05.768Z,455.63
2018-07-22T10:58:05.023Z,466.88
2018-07-22T10:59:05.337Z,466.88
2018-07-22T11:00:06.485Z,466.88
2018-07-22T11:01:05.122Z,461.25
2018-07-22T11:02:05.781Z,455.63
2018-07-22T11:03:05.559Z,466.88
2018-07-22T11:04:06.275Z,472.50
2018-07-22T11:05:06.576Z,478.13
2018-07-22T11:06:05.764Z,495.00
2018-07-22T11:07:05.962Z,523.13
2018-07-22T11:08:04.006Z,534.38
2018-07-22T11:09:03.967Z,556.88
2018-07-22T11:10:04.499Z,579.38
2018-07-22T11:11:05.803Z,551.25
2018-07-22T11:12:04.070Z,534.38
2018-07-22T11:13:06.180Z,528.75
2018-07-22T11:14:05.822Z,556.88
2018-07-22T11:15:05.712Z,585.00
2018-07-22T11:16:05.550Z,579.38
2018-07-22T11:17:05.375Z,568.13
2018-07-22T11:18:05.700Z,511.88
2018-07-22T11:19:05.308Z,444.38
2018-07-22T11:20:05.224Z,376.88
2018-07-22T11:21:05.816Z,309.38
2018-07-22T11:22:05.421Z,286.88
2018-07-22T11:23:04.728Z,292.50
2018-07-22T11:24:04.376Z,365.63
2018-07-22T11:25:04.928Z,466.88
2018-07-22T11:26:06.868Z,534.38
2018-07-22T11:27:05.214Z,573.75
2018-07-22T11:28:05.049Z,601.88
2018-07-22T11:29:05.051Z,596.25
2018-07-22T11:30:05.218Z,573.75
2018-07-22T11:31:05.235Z,556.88
2018-07-22T11:32:06.207Z,562.50
2018-07-22T11:33:04.615Z,579.38
2018-07-22T11:34:05.039Z,590.63
2018-07-22T11:35:05.213Z,585.00
2018-07-22T11:36:05.118Z,551.25
2018-07-22T11:37:05.349Z,534.38
2018-07-22T11:38:04.972Z,472.50
2018-07-22T11:39:05.209Z,433.13
2018-07-22T11:40:04.717Z,393.75
2018-07-22T11:41:05.039Z,388.13
2018-07-22T11:42:05.228Z,410.63
2018-07-22T11:43:05.015Z,393.75
2018-07-22T11:44:05.445Z,399.38
2018-07-22T11:45:05.859Z,388.13
2018-07-22T11:46:04.874Z,348.75
2018-07-22T11:47:05.045Z,309.38
2018-07-22T11:48:04.921Z,292.50
2018-07-22T11:49:05.163Z,286.88
2018-07-22T11:50:05.046Z,286.88
2018-07-22T11:51:04.863Z,298.13
2018-07-22T11:52:05.187Z,309.38
2018-07-22T11:53:05.160Z,331.88
2018-07-22T11:54:05.119Z,354.38
2018-07-22T11:55:05.221Z,371.25
2018-07-22T11:56:04.842Z,360.00
2018-07-22T11:57:05.790Z,348.75
2018-07-22T11:58:04.956Z,331.88
2018-07-22T11:59:05.239Z,315.00
2018-07-22T12:00:05.163Z,320.63
2018-07-22T12:01:04.792Z,348.75
2018-07-22T12:02:04.854Z,393.75
2018-07-22T12:03:05.479Z,405.00
2018-07-22T12:04:05.295Z,360.00
2018-07-22T12:05:05.390Z,331.88
2018-07-22T12:06:05.740Z,326.25
2018-07-22T12:07:05.157Z,315.00
2018-07-22T12:08:05.264Z,298.13
2018-07-22T12:09:05.319Z,303.75
2018-07-22T12:10:05.041Z,309.38
2018-07-22T12:11:05.032Z,326.25
2018-07-22T12:12:04.834Z,343.13
2018-07-22T12:13:05.438Z,399.38
2018-07-22T12:14:05.974Z,466.88
2018-07-22T12:15:05.729Z,500.63
2018-07-22T12:16:05.055Z,511.88
2018-07-22T12:17:05.497Z,511.88
2018-07-22T12:18:05.772Z,517.50
2018-07-22T12:19:05.733Z,528.75
2018-07-22T12:20:05.734Z,534.38
2018-07-22T12:21:05.298Z,545.63
2018-07-22T12:22:05.413Z,556.88
2018-07-22T12:23:05.305Z,540.00
2018-07-22T12:24:05.156Z,511.88
2018-07-22T12:25:05.127Z,472.50
2018-07-22T12:26:05.230Z,450.00
2018-07-22T12:27:05.237Z,433.13
2018-07-22T12:28:05.220Z,405.00
2018-07-22T12:29:05.255Z,365.63
2018-07-22T12:30:05.231Z,326.25
2018-07-22T12:31:05.432Z,315.00
2018-07-22T12:32:05.175Z,309.38
2018-07-22T12:33:05.246Z,315.00
2018-07-22T12:34:13.492Z,320.63
2018-07-22T12:35:05.756Z,315.00
2018-07-22T12:37:05.230Z,309.38
2018-07-22T12:38:08.354Z,298.13
2018-07-22T12:39:06.021Z,292.50
2018-07-22T12:40:06.146Z,292.50
2018-07-22T12:41:28.611Z,292.50
2018-07-22T12:42:06.571Z,286.88
2018-07-22T12:43:05.777Z,281.25
2018-07-22T12:44:05.709Z,292.50
2018-07-22T12:45:05.585Z,331.88
2018-07-22T12:46:05.501Z,354.38
2018-07-22T12:47:05.712Z,371.25
2018-07-22T12:48:05.280Z,416.25
2018-07-22T12:49:05.674Z,427.50
2018-07-22T12:50:05.354Z,427.50
2018-07-22T12:51:05.264Z,416.25